Time;durP1;ratioP1;P1;durP2;ratioP2;P2;SDS_P1;SDS_P2;PMS_P1;PMS_P2;Temp;Humidity;BMP_temperature;BMP_pressure;BME280_temperature;BME280_humidity;BME280_pressure;Samples;Min_cycle;Max_cycle;Signal;HPM_P1;HPM_P2
2023/01/05 00:01:50;;;;;;;;;;;;;;;;;;4772302;27;20223;-68
2023/01/05 00:04:16;;;;;;;;;;;;;;;;;;4774023;27;20228;-68
2023/01/05 00:06:42;;;;;;;;;;;;;;;;;;4772635;27;20776;-69
2023/01/05 00:09:08;;;;;;;;;;;;;;;;;;4773337;27;20346;-68
2023/01/05 00:22:33;;;;;;;;;;;;;;;;;;4793381;27;20231;-68
2023/01/05 00:24:59;;;;;;;;;;;;;;;;;;4793327;27;20258;-69
2023/01/05 00:27:25;;;;;;;;;;;;;;;;;;4793993;27;20239;-68
2023/01/05 00:29:51;;;;;;;;;;;;;;;;;;4793336;27;20242;-68
2023/01/05 00:32:17;;;;;;;;;;;;;;;;;;4793329;27;20278;-68
2023/01/05 00:34:43;;;;;;;;;;;;;;;;;;4792693;27;20242;-69
2023/01/05 00:37:08;;;;;;;;;;;;;;;;;;4794235;27;20335;-68
2023/01/05 00:39:34;;;;;;;;;;;;;;;;;;4794000;27;20284;-68
2023/01/05 00:42:00;;;;;;;;;;;;;;;;;;4792480;27;20695;-69
2023/01/05 00:44:26;;;;;;;;;;;;;;;;;;4794436;27;20326;-69
2023/01/05 00:46:53;;;;;;;;;;;;;;;;;;4793454;27;20265;-69
2023/01/05 00:49:18;;;;;;;;;;;;;;;;;;4791852;27;20276;-69
2023/01/05 00:51:44;;;;;;;;;;;;;;;;;;4792376;27;20671;-69
2023/01/05 00:54:10;;;;;;;;;;;;;;;;;;4794372;27;20299;-69
2023/01/05 00:56:36;;;;;;;;;;;;;;;;;;4777596;27;21264;-69
2023/01/05 00:59:02;;;;;;;;;;;;;;;;;;4772355;27;20220;-68
2023/01/05 01:01:28;;;;;;;;;;;;;;;;;;4773933;27;20782;-69
2023/01/05 01:03:54;;;;;;;;;;;;;;;;;;4773353;27;20282;-69
2023/01/05 01:06:20;;;;;;;;;;;;;;;;;;4774534;27;20263;-69
2023/01/05 01:08:45;;;;;;;;;;;;;;;;;;4773918;27;20282;-68
2023/01/05 01:11:11;;;;;;;;;;;;;;;;;;4773805;27;20315;-68
2023/01/05 01:13:37;;;;;;;;;;;;;;;;;;4774078;27;20279;-68
2023/01/05 01:16:03;;;;;;;;;;;;;;;;;;4774626;27;20445;-68
2023/01/05 01:18:29;;;;;;;;;;;;;;;;;;4771659;27;20691;-68
2023/01/05 01:20:55;;;;;;;;;;;;;;;;;;4772372;27;20279;-68
2023/01/05 01:23:21;;;;;;;;;;;;;;;;;;4774941;27;20725;-68
2023/01/05 01:25:47;;;;;;;;;;;;;;;;;;4791893;27;20291;-67
2023/01/05 01:28:13;;;;;;;;;;;;;;;;;;4790268;27;20739;-68
2023/01/05 01:30:38;;;;;;;;;;;;;;;;;;4786873;27;20288;-68
2023/01/05 01:33:04;;;;;;;;;;;;;;;;;;4785672;27;20707;-68
2023/01/05 01:35:30;;;;;;;;;;;;;;;;;;4786157;27;20247;-69
2023/01/05 01:37:56;;;;;;;;;;;;;;;;;;4785918;27;20816;-68
2023/01/05 01:40:22;;;;;;;;;;;;;;;;;;4785763;27;20282;-68
2023/01/05 01:42:48;;;;;;;;;;;;;;;;;;4785970;27;20326;-68
2023/01/05 01:45:14;;;;;;;;;;;;;;;;;;4785706;27;20292;-68
2023/01/05 01:47:40;;;;;;;;;;;;;;;;;;4785781;27;20340;-68
2023/01/05 01:50:05;;;;;;;;;;;;;;;;;;4785935;27;20306;-69
2023/01/05 01:52:31;;;;;;;;;;;;;;;;;;4785389;27;20314;-69
2023/01/05 01:54:57;;;;;;;;;;;;;;;;;;4785211;27;20860;-69
2023/01/05 01:57:23;;;;;;;;;;;;;;;;;;4785290;27;20278;-69
2023/01/05 01:59:49;;;;;;;;;;;;;;;;;;4768206;27;20238;-68
2023/01/05 02:02:15;;;;;;;;;;;;;;;;;;4784993;27;20320;-68
2023/01/05 02:04:41;;;;;;;;;;;;;;;;;;4785227;27;20225;-69
2023/01/05 02:07:07;;;;;;;;;;;;;;;;;;4769628;27;20293;-69
2023/01/05 02:09:33;;;;;;;;;;;;;;;;;;4749151;27;20735;-69
2023/01/05 02:11:59;;;;;;;;;;;;;;;;;;4765541;27;20344;-69
2023/01/05 02:14:24;;;;;;;;;;;;;;;;;;4766734;27;20311;-68
2023/01/05 02:16:50;;;;;;;;;;;;;;;;;;4766074;27;20267;-68
2023/01/05 02:19:16;;;;;;;;;;;;;;;;;;4766536;27;20324;-68
2023/01/05 02:21:42;;;;;;;;;;;;;;;;;;4765850;27;20285;-69
2023/01/05 02:24:08;;;;;;;;;;;;;;;;;;4766471;27;20291;-69
2023/01/05 02:26:34;;;;;;;;;;;;;;;;;;4765633;27;20391;-69
2023/01/05 02:29:00;;;;;;;;;;;;;;;;;;4766544;27;20278;-68
2023/01/05 02:31:26;;;;;;;;;;;;;;;;;;4766084;27;20349;-68
2023/01/05 02:33:55;;;;;;;;;;;;;;;;;;4765641;27;20271;-69
2023/01/05 02:36:20;;;;;;;;;;;;;;;;;;4765560;27;20269;-69
2023/01/05 02:38:46;;;;;;;;;;;;;;;;;;4765780;27;20279;-69
2023/01/05 02:41:12;;;;;;;;;;;;;;;;;;4765782;27;20287;-69
2023/01/05 02:43:38;;;;;;;;;;;;;;;;;;4765779;27;20240;-69
2023/01/05 02:46:04;;;;;;;;;;;;;;;;;;4769210;27;20382;-69
2023/01/05 02:48:30;;;;;;;;;;;;;;;;;;4765866;27;20347;-68
2023/01/05 02:50:59;;;;;;;;;;;;;;;;;;4765970;27;20289;-69
2023/01/05 02:53:25;;;;;;;;;;;;;;;;;;4766477;27;20308;-69
2023/01/05 02:55:51;;;;;;;;;;;;;;;;;;4767317;27;20811;-69
2023/01/05 02:58:17;;;;;;;;;;;;;;;;;;4768117;27;20304;-69
2023/01/05 03:00:43;;;;;;;;;;;;;;;;;;4767061;27;20775;-68
2023/01/05 03:03:09;;;;;;;;;;;;;;;;;;4766860;27;20239;-69
2023/01/05 03:05:35;;;;;;;;;;;;;;;;;;4769585;27;20755;-68
2023/01/05 03:08:07;;;;;;;;;;;;;;;;;;4780051;27;20338;-69
2023/01/05 03:16:04;;;;;;;;;;;;;;;;;;4785414;27;20296;-70
2023/01/05 03:18:30;;;;;;;;;;;;;;;;;;4786037;27;20260;-68
2023/01/05 03:20:56;;;;;;;;;;;;;;;;;;4777076;27;20697;-68
2023/01/05 03:37:06;;;;;;;;;;;;;;;;;;4769965;27;20373;-68
2023/01/05 03:39:32;;;;;;;;;;;;;;;;;;4770726;27;20394;-69
2023/01/05 03:41:58;;;;;;;;;;;;;;;;;;4768357;27;20324;-69
2023/01/05 03:44:23;;;;;;;;;;;;;;;;;;4766629;27;20277;-69
2023/01/05 03:46:49;;;;;;;;;;;;;;;;;;4766415;27;20268;-70
2023/01/05 03:49:16;;;;;;;;;;;;;;;;;;4766275;27;20362;-70
2023/01/05 03:51:42;;;;;;;;;;;;;;;;;;4766965;27;20305;-69
2023/01/05 03:54:08;;;;;;;;;;;;;;;;;;4766207;27;20709;-69
2023/01/05 03:56:34;;;;;;;;;;;;;;;;;;4766877;27;20275;-70
2023/01/05 03:59:00;;;;;;;;;;;;;;;;;;4766949;27;20282;-69
2023/01/05 04:01:26;;;;;;;;;;;;;;;;;;4766741;27;20332;-70
2023/01/05 04:03:51;;;;;;;;;;;;;;;;;;4766049;27;20656;-69
2023/01/05 04:06:17;;;;;;;;;;;;;;;;;;4765890;27;20314;-69
2023/01/05 04:08:43;;;;;;;;;;;;;;;;;;4764861;27;20283;-70
2023/01/05 04:11:09;;;;;;;;;;;;;;;;;;4779643;27;20293;-69
2023/01/05 04:13:35;;;;;;;;;;;;;;;;;;4785414;27;20290;-70
2023/01/05 04:16:01;;;;;;;;;;;;;;;;;;4786522;27;20374;-69
2023/01/05 04:18:27;;;;;;;;;;;;;;;;;;4801493;27;20228;-69
2023/01/05 04:20:53;;;;;;;;;;;;;;;;;;4800616;27;20648;-69
2023/01/05 04:23:19;;;;;;;;;;;;;;;;;;4801670;27;20226;-70
2023/01/05 04:25:44;;;;;;;;;;;;;;;;;;4797266;27;20619;-69
2023/01/05 04:28:10;;;;;;;;;;;;;;;;;;4785223;27;20221;-69
2023/01/05 04:30:36;;;;;;;;;;;;;;;;;;4784417;27;20288;-68
2023/01/05 04:33:02;;;;;;;;;;;;;;;;;;4803493;27;20782;-69
2023/01/05 04:35:28;;;;;;;;;;;;;;;;;;4786329;27;20285;-69
2023/01/05 04:37:54;;;;;;;;;;;;;;;;;;4765426;27;20351;-69
2023/01/05 04:40:20;;;;;;;;;;;;;;;;;;4766204;27;20243;-69
2023/01/05 04:42:46;;;;;;;;;;;;;;;;;;4766449;27;20268;-70
2023/01/05 04:45:12;;;;;;;;;;;;;;;;;;4764926;27;20236;-70
2023/01/05 04:47:37;;;;;;;;;;;;;;;;;;4764675;27;20305;-69
2023/01/05 04:50:03;;;;;;;;;;;;;;;;;;4764566;27;20766;-69
2023/01/05 04:52:29;;;;;;;;;;;;;;;;;;4764663;27;20253;-70
2023/01/05 04:54:55;;;;;;;;;;;;;;;;;;4764714;27;20669;-70
2023/01/05 04:57:21;;;;;;;;;;;;;;;;;;4764836;27;20412;-70
2023/01/05 04:59:47;;;;;;;;;;;;;;;;;;4767702;27;20289;-70
2023/01/05 05:02:13;;;;;;;;;;;;;;;;;;4769065;27;20263;-68
2023/01/05 05:04:39;;;;;;;;;;;;;;;;;;4768084;27;20760;-68
2023/01/05 05:07:04;;;;;;;;;;;;;;;;;;4769340;27;20292;-69
2023/01/05 05:09:30;;;;;;;;;;;;;;;;;;4769801;27;20265;-69
2023/01/05 05:11:56;;;;;;;;;;;;;;;;;;4771580;27;20379;-68
2023/01/05 05:14:22;;;;;;;;;;;;;;;;;;4769465;27;20288;-68
2023/01/05 05:16:48;;;;;;;;;;;;;;;;;;4776684;27;20314;-68
2023/01/05 05:19:14;;;;;;;;;;;;;;;;;;4786267;27;20436;-69
2023/01/05 05:21:40;;;;;;;;;;;;;;;;;;4786417;27;20286;-68
2023/01/05 05:24:06;;;;;;;;;;;;;;;;;;4786670;27;20270;-68
2023/01/05 05:26:32;;;;;;;;;;;;;;;;;;4780650;27;20246;-68
2023/01/05 05:28:58;;;;;;;;;;;;;;;;;;4767980;27;20253;-68
2023/01/05 05:31:24;;;;;;;;;;;;;;;;;;4769460;27;20299;-68
2023/01/05 05:33:50;;;;;;;;;;;;;;;;;;4782996;27;20252;-68
2023/01/05 05:36:16;;;;;;;;;;;;;;;;;;4789350;27;20275;-68
2023/01/05 05:38:42;;;;;;;;;;;;;;;;;;4788695;27;20284;-68
2023/01/05 05:41:08;;;;;;;;;;;;;;;;;;4787357;27;20758;-68
2023/01/05 05:43:34;;;;;;;;;;;;;;;;;;4786758;27;20239;-68
2023/01/05 05:46:00;;;;;;;;;;;;;;;;;;4785256;27;20656;-68
2023/01/05 05:48:26;;;;;;;;;;;;;;;;;;4785731;27;20279;-68
2023/01/05 05:50:52;;;;;;;;;;;;;;;;;;4784186;27;20823;-67
2023/01/05 05:53:18;;;;;;;;;;;;;;;;;;4786238;27;20339;-68
2023/01/05 05:55:43;;;;;;;;;;;;;;;;;;4798975;27;20237;-68
2023/01/05 05:58:09;;;;;;;;;;;;;;;;;;4802384;27;20250;-67
2023/01/05 06:00:35;;;;;;;;;;;;;;;;;;4792947;27;20282;-67
2023/01/05 06:03:01;;;;;;;;;;;;;;;;;;4782739;27;20905;-67
2023/01/05 06:05:27;;;;;;;;;;;;;;;;;;4796237;27;20233;-67
2023/01/05 06:07:53;;;;;;;;;;;;;;;;;;4783562;27;20686;-68
2023/01/05 06:10:21;;;;;;;;;;;;;;;;;;4783001;27;20526;-68
2023/01/05 06:12:47;;;;;;;;;;;;;;;;;;4798518;27;20277;-67
2023/01/05 06:15:12;;;;;;;;;;;;;;;;;;4803557;27;20671;-68
2023/01/05 06:17:38;;;;;;;;;;;;;;;;;;4803767;27;20407;-68
2023/01/05 06:20:04;;;;;;;;;;;;;;;;;;4804163;27;20285;-67
2023/01/05 06:22:30;;;;;;;;;;;;;;;;;;4803384;27;20788;-67
2023/01/05 06:24:56;;;;;;;;;;;;;;;;;;4804415;27;20251;-70
2023/01/05 06:27:22;;;;;;;;;;;;;;;;;;4803658;27;20224;-69
2023/01/05 06:29:48;;;;;;;;;;;;;;;;;;4804214;27;20319;-69
2023/01/05 06:32:14;;;;;;;;;;;;;;;;;;4804266;27;20263;-69
2023/01/05 06:34:40;;;;;;;;;;;;;;;;;;4804143;27;20266;-69
2023/01/05 06:37:05;;;;;;;;;;;;;;;;;;4804609;27;20267;-69
2023/01/05 06:39:31;;;;;;;;;;;;;;;;;;4779463;27;20408;-69
2023/01/05 06:41:57;;;;;;;;;;;;;;;;;;4785205;27;20266;-69
2023/01/05 06:44:23;;;;;;;;;;;;;;;;;;4781534;27;20265;-69
2023/01/05 06:46:49;;;;;;;;;;;;;;;;;;4763441;28;20311;-69
2023/01/05 06:49:15;;;;;;;;;;;;;;;;;;4781801;27;20342;-69
2023/01/05 06:51:41;;;;;;;;;;;;;;;;;;4770737;27;20820;-70
2023/01/05 06:54:07;;;;;;;;;;;;;;;;;;4764876;27;20246;-70
2023/01/05 06:56:32;;;;;;;;;;;;;;;;;;4766612;27;20318;-69
2023/01/05 06:58:58;;;;;;;;;;;;;;;;;;4763045;27;20427;-68
2023/01/05 07:01:24;;;;;;;;;;;;;;;;;;4761984;27;20749;-70
2023/01/05 07:03:50;;;;;;;;;;;;;;;;;;4767349;27;20321;-68
2023/01/05 07:06:16;;;;;;;;;;;;;;;;;;4767914;27;20309;-71
2023/01/05 07:08:42;;;;;;;;;;;;;;;;;;4766162;27;20257;-70
2023/01/05 07:11:08;;;;;;;;;;;;;;;;;;4765320;27;20270;-69
2023/01/05 07:13:34;;;;;;;;;;;;;;;;;;4774869;27;20779;-70
2023/01/05 07:16:00;;;;;;;;;;;;;;;;;;4782628;27;20273;-70
2023/01/05 07:18:25;;;;;;;;;;;;;;;;;;4782451;27;20280;-70
2023/01/05 07:20:51;;;;;;;;;;;;;;;;;;4785349;27;20258;-69
2023/01/05 07:23:18;;;;;;;;;;;;;;;;;;4785092;27;20273;-70
2023/01/05 07:25:44;;;;;;;;;;;;;;;;;;4786571;27;20326;-69
2023/01/05 07:28:10;;;;;;;;;;;;;;;;;;4784680;27;20411;-69
2023/01/05 07:30:36;;;;;;;;;;;;;;;;;;4785211;27;20279;-70
2023/01/05 07:33:02;;;;;;;;;;;;;;;;;;4785321;27;20274;-69
2023/01/05 07:35:28;;;;;;;;;;;;;;;;;;4784484;27;20815;-68
2023/01/05 07:37:54;;;;;;;;;;;;;;;;;;4782061;27;20366;-69
2023/01/05 07:40:20;;;;;;;;;;;;;;;;;;4782295;27;20744;-69
2023/01/05 07:42:46;;;;;;;;;;;;;;;;;;4748616;27;20313;-70
2023/01/05 07:45:11;;;;;;;;;;;;;;;;;;4766917;27;20268;-69
2023/01/05 07:47:37;;;;;;;;;;;;;;;;;;4766560;27;20313;-68
2023/01/05 07:50:03;;;;;;;;;;;;;;;;;;4768582;27;20237;-68
2023/01/05 07:52:30;;;;;;;;;;;;;;;;;;4767573;27;20736;-69
2023/01/05 07:54:57;;;;;;;;;;;;;;;;;;4762117;27;20364;-73
2023/01/05 07:57:23;;;;;;;;;;;;;;;;;;4776541;27;20234;-61
2023/01/05 07:59:48;;;;;;;;;;;;;;;;;;4768633;27;21123;-65
2023/01/05 08:02:14;;;;;;;;;;;;;;;;;;4770085;27;20431;-67
2023/01/05 08:04:40;;;;;;;;;;;;;;;;;;4777519;27;20793;-66
2023/01/05 08:07:10;;;;;;;;;;;;;;;;;;4776671;27;20300;-65
2023/01/05 08:12:20;;;;;;;;;;;;;;;;;;4774208;27;20300;-66
2023/01/05 08:14:46;;;;;;;;;;;;;;;;;;4777067;27;20263;-66
2023/01/05 08:17:12;;;;;;;;;;;;;;;;;;4770641;27;20652;-66
2023/01/05 08:19:38;;;;;;;;;;;;;;;;;;4773309;27;20302;-66
2023/01/05 08:22:04;;;;;;;;;;;;;;;;;;4773638;27;20230;-65
2023/01/05 08:24:30;;;;;;;;;;;;;;;;;;4773807;27;20276;-66
2023/01/05 08:26:56;;;;;;;;;;;;;;;;;;4772326;27;20221;-65
2023/01/05 08:29:22;;;;;;;;;;;;;;;;;;4781522;27;20271;-65
2023/01/05 08:31:48;;;;;;;;;;;;;;;;;;4788979;27;20233;-64
2023/01/05 08:34:14;;;;;;;;;;;;;;;;;;4790112;27;20811;-65
2023/01/05 08:36:40;;;;;;;;;;;;;;;;;;4767143;27;20898;-65
2023/01/05 08:39:05;;;;;;;;;;;;;;;;;;4759934;27;20285;-63
2023/01/05 08:41:31;;;;;;;;;;;;;;;;;;4754208;27;20276;-65
2023/01/05 08:43:57;;;;;;;;;;;;;;;;;;4760532;27;20420;-65
2023/01/05 08:46:23;;;;;;;;;;;;;;;;;;4763305;27;20780;-65
2023/01/05 08:48:49;;;;;;;;;;;;;;;;;;4766409;27;20241;-65
2023/01/05 08:51:15;;;;;;;;;;;;;;;;;;4759947;27;20250;-65
2023/01/05 08:53:41;;;;;;;;;;;;;;;;;;4766960;27;20301;-65
2023/01/05 08:56:07;;;;;;;;;;;;;;;;;;4769476;27;20285;-66
2023/01/05 08:58:33;;;;;;;;;;;;;;;;;;4765308;27;20313;-65
2023/01/05 09:01:00;;;;;;;;;;;;;;;;;;4757718;27;20295;-65
2023/01/05 09:03:25;;;;;;;;;;;;;;;;;;4762600;27;20269;-65
2023/01/05 09:05:51;;;;;;;;;;;;;;;;;;4758521;27;20621;-65
2023/01/05 09:08:17;;;;;;;;;;;;;;;;;;4761726;27;20310;-65
2023/01/05 09:10:43;;;;;;;;;;;;;;;;;;4765137;27;20380;-65
2023/01/05 09:13:10;;;;;;;;;;;;;;;;;;4767621;27;20268;-64
2023/01/05 09:15:36;;;;;;;;;;;;;;;;;;4758762;27;20786;-66
2023/01/05 09:18:02;;;;;;;;;;;;;;;;;;4740974;27;20290;-66
2023/01/05 09:20:28;;;;;;;;;;;;;;;;;;4765362;27;20375;-65
2023/01/05 09:22:54;;;;;;;;;;;;;;;;;;4757602;27;20652;-64
2023/01/05 09:25:20;;;;;;;;;;;;;;;;;;4758721;27;20293;-66
2023/01/05 09:27:46;;;;;;;;;;;;;;;;;;4756386;27;20370;-64
2023/01/05 09:30:12;;;;;;;;;;;;;;;;;;4768649;27;20290;-63
2023/01/05 09:32:37;;;;;;;;;;;;;;;;;;4763481;27;20791;-65
2023/01/05 09:35:03;;;;;;;;;;;;;;;;;;4752269;27;20389;-65
2023/01/05 09:37:29;;;;;;;;;;;;;;;;;;4767925;27;20237;-65
2023/01/05 09:39:55;;;;;;;;;;;;;;;;;;4769815;27;20809;-65
2023/01/05 09:42:22;;;;;;;;;;;;;;;;;;4759425;27;20288;-61
2023/01/05 09:44:48;;;;;;;;;;;;;;;;;;4764116;27;20282;-64
2023/01/05 09:47:14;;;;;;;;;;;;;;;;;;4753368;27;20276;-65
2023/01/05 09:49:39;;;;;;;;;;;;;;;;;;4757677;27;20246;-64
2023/01/05 09:52:09;;;;;;;;;;;;;;;;;;4758796;27;20356;-63
2023/01/05 09:54:35;;;;;;;;;;;;;;;;;;4761529;27;20236;-64
2023/01/05 09:57:01;;;;;;;;;;;;;;;;;;4759641;27;20266;-65
2023/01/05 09:59:27;;;;;;;;;;;;;;;;;;4762083;27;20886;-65
2023/01/05 10:01:53;;;;;;;;;;;;;;;;;;4755195;27;20316;-65
2023/01/05 10:04:18;;;;;;;;;;;;;;;;;;4752559;27;20369;-65
2023/01/05 10:06:44;;;;;;;;;;;;;;;;;;4760899;27;20253;-65
2023/01/05 10:09:10;;;;;;;;;;;;;;;;;;4753839;27;20258;-64
2023/01/05 10:14:21;;;;;;;;;;;;;;;;;;4758753;27;20324;-65
2023/01/05 10:16:46;;;;;;;;;;;;;;;;;;4760616;27;20235;-65
2023/01/05 10:19:12;;;;;;;;;;;;;;;;;;4755430;27;20294;-64
2023/01/05 10:21:38;;;;;;;;;;;;;;;;;;4768177;27;20394;-65
2023/01/05 10:24:04;;;;;;;;;;;;;;;;;;4763002;27;20336;-63
2023/01/05 10:26:30;;;;;;;;;;;;;;;;;;4764006;27;20360;-64
2023/01/05 10:28:56;;;;;;;;;;;;;;;;;;4764704;27;20288;-63
2023/01/05 10:31:22;;;;;;;;;;;;;;;;;;4760624;27;20314;-64
2023/01/05 10:33:48;;;;;;;;;;;;;;;;;;4763528;27;20296;-63
2023/01/05 10:36:14;;;;;;;;;;;;;;;;;;4763005;27;20319;-65
2023/01/05 10:38:40;;;;;;;;;;;;;;;;;;4764681;27;20333;-61
2023/01/05 10:41:06;;;;;;;;;;;;;;;;;;4769050;27;20698;-65
2023/01/05 10:43:32;;;;;;;;;;;;;;;;;;4769518;27;20241;-60
2023/01/05 10:45:58;;;;;;;;;;;;;;;;;;4763541;27;20590;-64
2023/01/05 10:48:24;;;;;;;;;;;;;;;;;;4766546;27;20237;-65
2023/01/05 10:50:49;;;;;;;;;;;;;;;;;;4765756;27;20278;-65
2023/01/05 10:53:15;;;;;;;;;;;;;;;;;;4768347;27;20236;-64
2023/01/05 10:55:41;;;;;;;;;;;;;;;;;;4740999;27;20608;-65
2023/01/05 10:58:07;;;;;;;;;;;;;;;;;;4766209;27;20794;-64
2023/01/05 11:00:33;;;;;;;;;;;;;;;;;;4766393;27;20262;-65
2023/01/05 11:02:59;;;;;;;;;;;;;;;;;;4773273;27;20778;-63
2023/01/05 11:05:25;;;;;;;;;;;;;;;;;;4766495;27;20289;-62
2023/01/05 11:07:51;;;;;;;;;;;;;;;;;;4765820;27;20407;-65
2023/01/05 11:10:16;;;;;;;;;;;;;;;;;;4762129;27;20233;-64
2023/01/05 11:12:42;;;;;;;;;;;;;;;;;;4759928;27;20382;-64
2023/01/05 11:15:08;;;;;;;;;;;;;;;;;;4761242;27;20342;-65
2023/01/05 11:17:34;;;;;;;;;;;;;;;;;;4768630;27;20285;-64
2023/01/05 11:20:01;;;;;;;;;;;;;;;;;;4763341;27;20312;-65
2023/01/05 11:22:27;;;;;;;;;;;;;;;;;;4760700;27;20245;-65
2023/01/05 11:24:53;;;;;;;;;;;;;;;;;;4768964;27;20286;-65
2023/01/05 11:27:18;;;;;;;;;;;;;;;;;;4761340;27;20361;-64
2023/01/05 11:29:44;;;;;;;;;;;;;;;;;;4768414;27;20359;-61
2023/01/05 11:32:10;;;;;;;;;;;;;;;;;;4765845;27;20260;-65
2023/01/05 11:34:36;;;;;;;;;;;;;;;;;;4769361;27;20230;-65
2023/01/05 11:37:02;;;;;;;;;;;;;;;;;;4763201;27;20231;-64
2023/01/05 11:39:28;;;;;;;;;;;;;;;;;;4772699;27;20349;-64
2023/01/05 11:41:54;;;;;;;;;;;;;;;;;;4755392;27;20777;-65
2023/01/05 11:44:20;;;;;;;;;;;;;;;;;;4758458;27;20275;-65
2023/01/05 11:46:47;;;;;;;;;;;;;;;;;;4758602;27;20262;-65
2023/01/05 11:49:13;;;;;;;;;;;;;;;;;;4759820;27;20254;-63
2023/01/05 11:51:39;;;;;;;;;;;;;;;;;;4758457;27;20271;-65
2023/01/05 11:54:05;;;;;;;;;;;;;;;;;;4761387;27;20253;-65
2023/01/05 11:56:31;;;;;;;;;;;;;;;;;;4762295;27;20303;-64
2023/01/05 11:58:57;;;;;;;;;;;;;;;;;;4758940;27;20720;-65
2023/01/05 12:01:24;;;;;;;;;;;;;;;;;;4765455;27;20302;-64
2023/01/05 12:03:50;;;;;;;;;;;;;;;;;;4759601;27;20380;-65
2023/01/05 12:06:15;;;;;;;;;;;;;;;;;;4761907;27;20365;-65
2023/01/05 12:08:41;;;;;;;;;;;;;;;;;;4760565;27;20337;-65
2023/01/05 12:11:07;;;;;;;;;;;;;;;;;;4768281;27;20230;-65
2023/01/05 12:13:33;;;;;;;;;;;;;;;;;;4757082;27;20265;-66
2023/01/05 12:15:59;;;;;;;;;;;;;;;;;;4765194;27;20266;-66
2023/01/05 12:18:25;;;;;;;;;;;;;;;;;;4762743;27;20889;-65
2023/01/05 12:20:51;;;;;;;;;;;;;;;;;;4765953;27;20383;-66
2023/01/05 12:23:17;;;;;;;;;;;;;;;;;;4757776;27;20242;-65
2023/01/05 12:25:43;;;;;;;;;;;;;;;;;;4763471;27;20822;-65
2023/01/05 12:28:09;;;;;;;;;;;;;;;;;;4760048;27;20270;-66
2023/01/05 12:30:34;;;;;;;;;;;;;;;;;;4765414;27;20376;-65
2023/01/05 12:33:00;;;;;;;;;;;;;;;;;;4766756;27;20221;-67
2023/01/05 12:35:26;;;;;;;;;;;;;;;;;;4765163;27;20218;-65
2023/01/05 12:37:52;;;;;;;;;;;;;;;;;;4766958;27;20336;-66
2023/01/05 12:40:18;;;;;;;;;;;;;;;;;;4765161;27;20255;-65
2023/01/05 12:42:44;;;;;;;;;;;;;;;;;;4765655;27;20785;-66
2023/01/05 12:45:10;;;;;;;;;;;;;;;;;;4766463;27;20257;-66
2023/01/05 12:47:36;;;;;;;;;;;;;;;;;;4769745;27;20291;-65
2023/01/05 12:50:01;;;;;;;;;;;;;;;;;;4762852;27;20426;-66
2023/01/05 12:52:28;;;;;;;;;;;;;;;;;;4765776;27;20315;-65
2023/01/05 12:54:53;;;;;;;;;;;;;;;;;;4756874;27;20656;-67
2023/01/05 12:57:19;;;;;;;;;;;;;;;;;;4768523;27;20308;-65
2023/01/05 12:59:45;;;;;;;;;;;;;;;;;;4762279;27;20238;-66
2023/01/05 13:02:13;;;;;;;;;;;;;;;;;;4763674;27;20311;-66
2023/01/05 13:04:38;;;;;;;;;;;;;;;;;;4759642;27;20796;-67
2023/01/05 13:07:04;;;;;;;;;;;;;;;;;;4763294;27;20232;-65
2023/01/05 13:09:30;;;;;;;;;;;;;;;;;;4755996;27;20297;-66
2023/01/05 13:11:56;;;;;;;;;;;;;;;;;;4758964;27;20400;-66
2023/01/05 13:14:22;;;;;;;;;;;;;;;;;;4762192;27;20285;-66
2023/01/05 13:16:48;;;;;;;;;;;;;;;;;;4759170;27;20293;-67
2023/01/05 13:19:14;;;;;;;;;;;;;;;;;;4764619;27;20313;-66
2023/01/05 13:21:40;;;;;;;;;;;;;;;;;;4766289;27;20382;-66
2023/01/05 13:24:06;;;;;;;;;;;;;;;;;;4754408;27;20250;-67
2023/01/05 13:26:31;;;;;;;;;;;;;;;;;;4748268;27;20297;-66
2023/01/05 13:28:59;;;;;;;;;;;;;;;;;;4755090;27;20686;-65
2023/01/05 13:31:25;;;;;;;;;;;;;;;;;;4748433;27;20302;-66
2023/01/05 13:33:51;;;;;;;;;;;;;;;;;;4757636;27;20651;-66
2023/01/05 13:36:17;;;;;;;;;;;;;;;;;;4757099;27;20284;-66
2023/01/05 13:38:42;;;;;;;;;;;;;;;;;;4760099;27;20823;-66
2023/01/05 13:41:08;;;;;;;;;;;;;;;;;;4750338;27;20237;-64
2023/01/05 13:43:34;;;;;;;;;;;;;;;;;;4756345;27;20694;-64
2023/01/05 13:46:00;;;;;;;;;;;;;;;;;;4759856;27;20234;-65
2023/01/05 13:48:26;;;;;;;;;;;;;;;;;;4758950;27;20256;-65
2023/01/05 13:50:52;;;;;;;;;;;;;;;;;;4760074;27;20627;-66
2023/01/05 13:53:18;;;;;;;;;;;;;;;;;;4763331;27;20230;-66
2023/01/05 13:55:44;;;;;;;;;;;;;;;;;;4763388;27;20327;-66
2023/01/05 13:58:09;;;;;;;;;;;;;;;;;;4756742;27;20270;-66
2023/01/05 14:00:35;;;;;;;;;;;;;;;;;;4758402;27;20285;-65
2023/01/05 14:03:05;;;;;;;;;;;;;;;;;;4758422;27;20874;-66
2023/01/05 14:05:31;;;;;;;;;;;;;;;;;;4763394;27;20234;-66
2023/01/05 14:07:57;;;;;;;;;;;;;;;;;;4752984;27;20319;-66
2023/01/05 14:10:23;;;;;;;;;;;;;;;;;;4762055;27;20353;-66
2023/01/05 14:12:49;;;;;;;;;;;;;;;;;;4758351;27;20272;-65
2023/01/05 14:15:15;;;;;;;;;;;;;;;;;;4765368;27;20261;-66
2023/01/05 14:17:41;;;;;;;;;;;;;;;;;;4754851;27;20285;-64
2023/01/05 14:20:07;;;;;;;;;;;;;;;;;;4762032;27;20284;-65
2023/01/05 14:22:33;;;;;;;;;;;;;;;;;;4757049;27;20283;-67
2023/01/05 14:24:59;;;;;;;;;;;;;;;;;;4760726;27;20399;-66
2023/01/05 14:27:25;;;;;;;;;;;;;;;;;;4757080;27;20237;-66
2023/01/05 14:29:51;;;;;;;;;;;;;;;;;;4756614;27;20245;-65
2023/01/05 14:32:17;;;;;;;;;;;;;;;;;;4759351;27;20282;-65
2023/01/05 14:34:42;;;;;;;;;;;;;;;;;;4758378;27;20275;-65
2023/01/05 14:37:08;;;;;;;;;;;;;;;;;;4759633;27;20234;-65
2023/01/05 14:39:34;;;;;;;;;;;;;;;;;;4762116;27;20266;-65
2023/01/05 14:42:00;;;;;;;;;;;;;;;;;;4758141;27;20267;-64
2023/01/05 14:44:26;;;;;;;;;;;;;;;;;;4756773;27;20386;-65
2023/01/05 14:46:52;;;;;;;;;;;;;;;;;;4762511;27;20306;-65
2023/01/05 14:49:18;;;;;;;;;;;;;;;;;;4755424;27;20798;-65
2023/01/05 14:51:44;;;;;;;;;;;;;;;;;;4761688;27;20318;-65
2023/01/05 14:54:09;;;;;;;;;;;;;;;;;;4758425;27;21020;-65
2023/01/05 14:56:35;;;;;;;;;;;;;;;;;;4766428;27;20339;-64
2023/01/05 14:59:01;;;;;;;;;;;;;;;;;;4763696;27;21097;-64
2023/01/05 15:01:27;;;;;;;;;;;;;;;;;;4766700;27;20313;-65
2023/01/05 15:03:53;;;;;;;;;;;;;;;;;;4765806;27;20231;-64
2023/01/05 15:06:19;;;;;;;;;;;;;;;;;;4763123;27;20270;-65
2023/01/05 15:08:45;;;;;;;;;;;;;;;;;;4763250;27;20305;-65
2023/01/05 15:11:11;;;;;;;;;;;;;;;;;;4768120;27;20369;-66
2023/01/05 15:13:36;;;;;;;;;;;;;;;;;;4764178;27;20287;-65
2023/01/05 15:16:02;;;;;;;;;;;;;;;;;;4770867;27;20250;-66
2023/01/05 15:18:28;;;;;;;;;;;;;;;;;;4770745;27;20274;-66
2023/01/05 15:20:54;;;;;;;;;;;;;;;;;;4769512;27;20280;-65
2023/01/05 15:23:20;;;;;;;;;;;;;;;;;;4763482;27;20306;-66
2023/01/05 15:25:46;;;;;;;;;;;;;;;;;;4761700;27;20283;-67
2023/01/05 15:28:12;;;;;;;;;;;;;;;;;;4750134;27;20230;-66
2023/01/05 15:30:38;;;;;;;;;;;;;;;;;;4767592;27;20280;-65
2023/01/05 15:33:04;;;;;;;;;;;;;;;;;;4770913;27;20293;-64
2023/01/05 15:35:29;;;;;;;;;;;;;;;;;;4767761;27;20268;-66
2023/01/05 15:37:55;;;;;;;;;;;;;;;;;;4772096;27;20236;-66
2023/01/05 15:40:21;;;;;;;;;;;;;;;;;;4767268;27;20276;-66
2023/01/05 15:42:48;;;;;;;;;;;;;;;;;;4754784;27;20369;-65
2023/01/05 15:45:14;;;;;;;;;;;;;;;;;;4763141;27;20324;-64
2023/01/05 15:47:40;;;;;;;;;;;;;;;;;;4763351;27;20862;-64
2023/01/05 15:50:06;;;;;;;;;;;;;;;;;;4760603;27;20298;-65
2023/01/05 15:52:32;;;;;;;;;;;;;;;;;;4764162;27;20265;-65
2023/01/05 15:54:58;;;;;;;;;;;;;;;;;;4762979;27;20277;-66
2023/01/05 15:57:24;;;;;;;;;;;;;;;;;;4765356;27;20236;-66
2023/01/05 15:59:50;;;;;;;;;;;;;;;;;;4764687;27;20229;-65
2023/01/05 16:02:16;;;;;;;;;;;;;;;;;;4765605;27;20254;-66
2023/01/05 16:04:42;;;;;;;;;;;;;;;;;;4765986;27;20265;-66
2023/01/05 16:07:08;;;;;;;;;;;;;;;;;;4761313;27;20245;-65
2023/01/05 16:09:34;;;;;;;;;;;;;;;;;;4767378;27;20238;-65
2023/01/05 16:12:00;;;;;;;;;;;;;;;;;;4764055;27;20231;-65
2023/01/05 16:14:27;;;;;;;;;;;;;;;;;;4764840;27;20265;-66
2023/01/05 16:16:53;;;;;;;;;;;;;;;;;;4760202;27;20284;-66
2023/01/05 16:19:19;;;;;;;;;;;;;;;;;;4768630;27;20316;-66
2023/01/05 16:21:45;;;;;;;;;;;;;;;;;;4758126;27;20238;-65
2023/01/05 16:24:11;;;;;;;;;;;;;;;;;;4763217;27;20863;-65
2023/01/05 16:26:37;;;;;;;;;;;;;;;;;;4762084;27;20241;-65
2023/01/05 16:29:03;;;;;;;;;;;;;;;;;;4765758;27;20706;-65
2023/01/05 16:31:30;;;;;;;;;;;;;;;;;;4761873;27;20291;-65
2023/01/05 16:33:56;;;;;;;;;;;;;;;;;;4766580;27;20737;-66
2023/01/05 16:36:22;;;;;;;;;;;;;;;;;;4783362;27;20279;-64
2023/01/05 16:38:48;;;;;;;;;;;;;;;;;;4784983;27;20275;-66
2023/01/05 16:41:14;;;;;;;;;;;;;;;;;;4795250;27;20275;-66
2023/01/05 16:43:40;;;;;;;;;;;;;;;;;;4786439;27;20304;-65
2023/01/05 16:46:06;;;;;;;;;;;;;;;;;;4781187;27;20933;-65
2023/01/05 16:48:31;;;;;;;;;;;;;;;;;;4791815;27;20235;-66
2023/01/05 16:50:57;;;;;;;;;;;;;;;;;;4792430;27;20307;-67
2023/01/05 16:53:23;;;;;;;;;;;;;;;;;;4793396;27;20281;-66
2023/01/05 16:55:49;;;;;;;;;;;;;;;;;;4795934;27;20286;-64
2023/01/05 16:58:15;;;;;;;;;;;;;;;;;;4779588;27;20289;-66
2023/01/05 17:00:41;;;;;;;;;;;;;;;;;;4790481;27;20225;-66
2023/01/05 17:03:07;;;;;;;;;;;;;;;;;;4784393;27;20264;-66
2023/01/05 17:05:33;;;;;;;;;;;;;;;;;;4781845;27;20211;-66
2023/01/05 17:07:59;;;;;;;;;;;;;;;;;;4788654;27;20273;-65
2023/01/05 17:10:25;;;;;;;;;;;;;;;;;;4790288;27;20295;-65
2023/01/05 17:12:51;;;;;;;;;;;;;;;;;;4791632;27;20221;-65